Algodones, New Mexico
Current Conditions -  °F | °C
As of 3:52 PM on Friday 19 Dec 2014 (Local Time) from KABQ Reporting Station
Few Clouds Few Clouds  
Wind Chill: 35°   Ceiling: Unl
Heat Index: 43°   Visibility: 10mi
Dew Point: 23°   Wind: 17mph
Humidity: 45%   Direction: 330°NNW
Pressure: 30.17"   Gusts: NA
Location:  35.38°N, 106.48°W
Report Text: KABQ 192252Z 33015KT 10SM FEW045 FEW250 06/M05 A3017 RMK AO2 SLP214 T00611050
Loading
Personal Weather Stations






























Interactive Weather Map New forecast layout! Learn more

10-Day Weather Forecast

Advertisements
Track Severe Weather on mobile